createdAt,value
2023-05-25T00:01:30.891Z,101227.53
2023-05-25T00:04:00.651Z,101267.34
2023-05-25T00:06:30.026Z,101265.56
2023-05-25T00:08:58.155Z,101261.16
2023-05-25T00:11:27.942Z,101266.47
2023-05-25T00:13:56.047Z,101266.56
2023-05-25T00:16:24.032Z,101255.25
2023-05-25T00:18:53.199Z,101271.22
2023-05-25T00:21:21.049Z,101266.03
2023-05-25T00:23:48.994Z,101263.44
2023-05-25T00:26:16.811Z,101267.16
2023-05-25T00:28:46.030Z,101270.84
2023-05-25T00:31:14.035Z,101269.09
2023-05-25T00:33:42.025Z,101272.88
2023-05-25T00:36:10.002Z,101272.06
2023-05-25T00:38:37.904Z,101270.38
2023-05-25T00:41:06.975Z,101273.88
2023-05-25T00:43:34.856Z,101238.56
2023-05-25T00:46:04.389Z,101268.63
2023-05-25T00:48:33.048Z,101279.88
2023-05-25T00:51:01.571Z,101274.69
2023-05-25T00:53:29.428Z,101271.41
2023-05-25T00:56:09.500Z,101276.94
2023-05-25T00:58:41.207Z,101256.69
2023-05-25T01:01:12.097Z,101267.31
2023-05-25T01:03:45.778Z,101225.97
2023-05-25T01:06:16.020Z,101252.56
2023-05-25T01:08:48.364Z,101231.44
2023-05-25T01:11:18.472Z,101271.06
2023-05-25T01:13:47.083Z,101273.81
2023-05-25T01:16:17.098Z,101262.16
2023-05-25T01:18:45.058Z,101248.28
2023-05-25T01:21:22.059Z,101271.31
2023-05-25T01:23:57.313Z,101260.75
2023-05-25T01:26:28.380Z,101271.31
2023-05-25T01:28:59.124Z,101272.34
2023-05-25T01:31:27.799Z,101276.78
2023-05-25T01:33:56.994Z,101271.56
2023-05-25T01:36:26.934Z,101268.72
2023-05-25T01:38:55.028Z,101265.41
2023-05-25T01:41:22.814Z,101268.13
2023-05-25T01:43:51.388Z,101263.84
2023-05-25T01:46:28.224Z,101267.44
2023-05-25T01:49:04.066Z,101266.50
2023-05-25T01:51:40.465Z,101242.00
2023-05-25T01:54:13.194Z,101258.72
2023-05-25T01:56:42.849Z,101266.84
2023-05-25T01:59:11.943Z,101266.13
2023-05-25T02:01:41.993Z,101268.63
2023-05-25T02:04:10.394Z,101270.44
2023-05-25T02:06:39.830Z,101273.22
2023-05-25T02:09:07.920Z,101274.94
2023-05-25T02:11:35.818Z,101270.44
2023-05-25T02:14:03.730Z,101265.97
2023-05-25T02:16:31.621Z,101273.16
2023-05-25T02:19:01.081Z,101265.00
2023-05-25T02:21:28.926Z,101262.28
2023-05-25T02:23:58.452Z,101235.91
2023-05-25T02:26:26.459Z,101264.13
2023-05-25T02:28:54.488Z,101261.38
2023-05-25T02:31:22.821Z,101264.94
2023-05-25T02:33:50.710Z,101266.56
2023-05-25T02:36:21.089Z,101218.97
2023-05-25T02:38:49.921Z,101228.56
2023-05-25T02:41:21.305Z,101239.28
2023-05-25T02:43:49.270Z,101266.03
2023-05-25T02:46:17.214Z,101265.16
2023-05-25T02:48:45.092Z,101268.69
2023-05-25T02:51:13.078Z,101274.84
2023-05-25T02:53:41.017Z,101267.56
2023-05-25T02:56:10.328Z,101278.22
2023-05-25T02:58:39.818Z,101277.25
2023-05-25T03:01:18.772Z,101279.81
2023-05-25T03:03:53.471Z,101282.09
2023-05-25T03:06:26.154Z,101274.91
2023-05-25T03:09:00.297Z,101286.41
2023-05-25T03:11:28.597Z,101287.38
2023-05-25T03:14:00.223Z,101284.81
2023-05-25T03:16:30.271Z,101213.47
2023-05-25T03:18:59.202Z,101300.19
2023-05-25T03:21:27.746Z,101303.75
2023-05-25T03:23:55.677Z,101303.50
2023-05-25T03:26:25.931Z,101303.31
2023-05-25T03:28:54.930Z,101308.66
2023-05-25T03:31:24.430Z,101310.63
2023-05-25T03:33:52.456Z,101312.63
2023-05-25T03:36:22.629Z,101303.06
2023-05-25T03:38:50.668Z,101312.75
2023-05-25T03:41:18.565Z,101305.63
2023-05-25T03:43:46.472Z,101319.59
2023-05-25T03:46:14.665Z,101330.91
2023-05-25T03:48:45.693Z,101334.66
2023-05-25T03:51:13.698Z,101328.69
2023-05-25T03:53:41.632Z,101325.09
2023-05-25T03:56:09.614Z,101329.50
2023-05-25T03:58:38.940Z,101276.56
2023-05-25T04:01:06.808Z,101331.34
2023-05-25T04:03:34.878Z,101324.28
2023-05-25T04:06:04.592Z,101333.44
2023-05-25T04:08:32.409Z,101337.00
2023-05-25T04:11:00.259Z,101344.63
2023-05-25T04:13:29.455Z,101324.94
2023-05-25T04:15:57.436Z,101346.94
2023-05-25T04:18:30.681Z,101346.81
2023-05-25T04:21:01.285Z,101345.88
2023-05-25T04:23:31.301Z,101348.31
2023-05-25T04:25:59.957Z,101355.44
2023-05-25T04:28:28.264Z,101332.34
2023-05-25T04:31:00.736Z,101317.34
2023-05-25T04:33:56.122Z,101349.94
2023-05-25T04:36:32.745Z,101351.91
2023-05-25T04:39:04.306Z,101360.22
2023-05-25T04:41:34.925Z,101345.19
2023-05-25T04:44:10.156Z,101222.19
2023-05-25T04:46:50.776Z,101366.22
2023-05-25T04:49:25.068Z,101343.09
2023-05-25T04:51:53.089Z,101345.63
2023-05-25T04:54:22.854Z,101342.22
2023-05-25T04:56:50.709Z,101366.09
2023-05-25T04:59:18.582Z,101316.31
2023-05-25T05:01:46.952Z,101364.66
2023-05-25T05:04:18.013Z,101377.03
2023-05-25T05:06:46.381Z,101376.28
2023-05-25T05:09:22.036Z,101369.84
2023-05-25T05:11:50.168Z,101373.38
2023-05-25T05:14:19.536Z,101384.31
2023-05-25T05:16:48.673Z,101386.88
2023-05-25T05:19:16.868Z,101386.00
2023-05-25T05:21:45.018Z,101377.84
2023-05-25T05:24:13.729Z,101353.84
2023-05-25T05:26:56.204Z,101399.88
2023-05-25T05:29:34.862Z,101402.53
2023-05-25T05:32:03.014Z,101300.22
2023-05-25T05:34:31.626Z,101398.50
2023-05-25T05:37:03.529Z,101403.34
2023-05-25T05:39:31.513Z,101383.03
2023-05-25T05:42:01.423Z,101312.41
2023-05-25T05:44:29.804Z,101406.06
2023-05-25T05:47:01.691Z,101407.75
2023-05-25T05:49:31.472Z,101401.19
2023-05-25T05:52:00.884Z,101369.66
2023-05-25T05:54:28.908Z,101406.69
2023-05-25T05:57:02.391Z,101410.25
2023-05-25T05:59:30.411Z,101418.06
2023-05-25T06:01:58.413Z,101418.00
2023-05-25T06:04:28.832Z,101418.59
2023-05-25T06:06:57.558Z,101418.28
2023-05-25T06:09:26.430Z,101416.91
2023-05-25T06:11:54.933Z,101420.22
2023-05-25T06:14:26.052Z,101427.75
2023-05-25T06:16:55.904Z,101430.97
2023-05-25T06:19:25.819Z,101432.00
2023-05-25T06:21:53.707Z,101401.91
2023-05-25T06:24:22.445Z,101438.06
2023-05-25T06:26:50.886Z,101390.34
2023-05-25T06:29:19.644Z,101443.44
2023-05-25T06:31:49.000Z,101411.06
2023-05-25T06:34:16.934Z,101434.44
2023-05-25T06:36:44.715Z,101451.78
2023-05-25T06:39:12.597Z,101451.63
2023-05-25T06:41:41.613Z,101450.44
2023-05-25T06:44:09.599Z,101455.53
2023-05-25T06:46:42.770Z,101462.53
2023-05-25T06:49:12.323Z,101424.44
2023-05-25T06:51:40.240Z,101427.84
2023-05-25T06:54:09.325Z,101463.75
2023-05-25T06:56:37.248Z,101439.59
2023-05-25T06:59:05.113Z,101451.72
2023-05-25T07:01:32.923Z,101463.09
2023-05-25T07:04:00.970Z,101470.19
2023-05-25T07:06:30.135Z,101450.81
2023-05-25T07:08:58.005Z,101476.50
2023-05-25T07:11:25.957Z,101472.03
2023-05-25T07:13:53.859Z,101470.94
2023-05-25T07:16:21.689Z,101477.19
2023-05-25T07:18:49.592Z,101475.44
2023-05-25T07:21:17.821Z,101477.19
2023-05-25T07:23:46.985Z,101457.84
2023-05-25T07:26:15.136Z,101483.53
2023-05-25T07:28:42.980Z,101443.66
2023-05-25T07:31:11.974Z,101480.84
2023-05-25T07:33:39.864Z,101489.28
2023-05-25T07:36:08.359Z,101481.28
2023-05-25T07:38:36.231Z,101479.97
2023-05-25T07:41:05.604Z,101482.44
2023-05-25T07:43:33.605Z,101494.66
2023-05-25T07:46:02.398Z,101480.56
2023-05-25T07:48:30.259Z,101490.28
2023-05-25T07:50:58.341Z,101489.41
2023-05-25T07:53:26.501Z,101498.75
2023-05-25T07:55:54.361Z,101493.84
2023-05-25T07:58:23.687Z,101497.25
2023-05-25T08:00:51.798Z,101495.41
2023-05-25T08:03:26.172Z,101496.03
2023-05-25T08:05:59.909Z,101495.72
2023-05-25T08:08:27.751Z,101505.88
2023-05-25T08:10:55.623Z,101500.63
2023-05-25T08:13:24.833Z,101504.31
2023-05-25T08:15:52.699Z,101505.19
2023-05-25T08:18:20.895Z,101506.81
2023-05-25T08:20:48.838Z,101445.78
2023-05-25T08:23:17.913Z,101518.41
2023-05-25T08:25:46.128Z,101510.16
2023-05-25T08:28:14.110Z,101511.28
2023-05-25T08:30:43.773Z,101504.19
2023-05-25T08:33:11.739Z,101508.75
2023-05-25T08:35:42.852Z,101514.75
2023-05-25T08:38:10.962Z,101517.75
2023-05-25T08:40:42.833Z,101514.53
2023-05-25T08:43:10.823Z,101512.09
2023-05-25T08:45:41.959Z,101514.94
2023-05-25T08:48:35.642Z,101499.34
2023-05-25T08:51:10.869Z,101511.41
2023-05-25T08:53:41.180Z,101508.13
2023-05-25T08:56:14.664Z,101522.81
2023-05-25T08:58:46.704Z,101530.63
2023-05-25T09:01:19.402Z,101469.88
2023-05-25T09:03:50.267Z,101520.53
2023-05-25T09:06:18.688Z,101522.34
2023-05-25T09:08:47.636Z,101511.84
2023-05-25T09:11:17.736Z,101514.00
2023-05-25T09:13:54.841Z,101519.19
2023-05-25T09:16:24.335Z,101516.34
2023-05-25T09:18:53.681Z,101523.09
2023-05-25T09:21:21.576Z,101519.59
2023-05-25T09:23:50.237Z,101512.84
2023-05-25T09:26:18.064Z,101491.72
2023-05-25T09:28:47.439Z,101520.47
2023-05-25T09:31:16.108Z,101522.88
2023-05-25T09:33:46.950Z,101525.72
2023-05-25T09:36:17.956Z,101507.69
2023-05-25T09:38:46.970Z,101522.94
2023-05-25T09:41:16.401Z,101510.84
2023-05-25T09:43:51.749Z,101527.19
2023-05-25T09:46:29.900Z,101533.13
2023-05-25T09:48:58.007Z,101529.31
2023-05-25T09:51:27.743Z,101528.88
2023-05-25T09:53:55.659Z,101532.28
2023-05-25T09:56:24.701Z,101533.28
2023-05-25T09:58:53.309Z,101501.38
2023-05-25T10:01:21.209Z,101523.19
2023-05-25T10:04:02.740Z,101496.31
2023-05-25T10:06:34.308Z,101525.50
2023-05-25T10:09:02.203Z,101529.25
2023-05-25T10:11:30.627Z,101447.34
2023-05-25T10:14:03.826Z,101536.16
2023-05-25T10:16:35.104Z,101542.78
2023-05-25T10:19:09.110Z,101530.66
2023-05-25T10:21:41.306Z,101508.53
2023-05-25T10:24:19.908Z,101537.53
2023-05-25T10:26:53.821Z,101539.53
2023-05-25T10:29:24.872Z,101541.28
2023-05-25T10:31:54.296Z,101537.25
2023-05-25T10:34:23.317Z,101537.16
2023-05-25T10:36:53.330Z,101537.66
2023-05-25T10:39:21.797Z,101539.88
2023-05-25T10:41:51.129Z,101535.94
2023-05-25T10:44:19.552Z,101528.78
2023-05-25T10:46:48.555Z,101535.06
2023-05-25T10:49:27.169Z,101525.72
2023-05-25T10:52:00.881Z,101536.31
2023-05-25T10:54:32.893Z,101543.88
2023-05-25T10:57:10.945Z,101531.41
2023-05-25T10:59:42.568Z,101544.66
2023-05-25T11:02:10.404Z,101536.34
2023-05-25T11:04:38.555Z,101544.28
2023-05-25T11:07:13.547Z,101538.22
2023-05-25T11:09:57.422Z,101537.84
2023-05-25T11:12:25.581Z,101539.41
2023-05-25T11:15:16.271Z,101512.09
2023-05-25T11:18:01.150Z,101539.16
2023-05-25T11:20:31.156Z,101533.53
2023-05-25T11:23:00.967Z,101537.63
2023-05-25T11:25:44.245Z,101525.75
2023-05-25T11:28:12.964Z,101526.72
2023-05-25T11:30:42.924Z,101524.47
2023-05-25T11:33:11.139Z,101533.00
2023-05-25T11:35:39.072Z,101519.72
2023-05-25T11:38:09.630Z,101510.25
2023-05-25T11:40:40.274Z,101511.56
2023-05-25T11:43:09.754Z,101510.59
2023-05-25T11:45:39.264Z,101502.28
2023-05-25T11:48:07.489Z,101509.88
2023-05-25T11:50:35.393Z,101510.34
2023-05-25T11:53:07.152Z,101438.63
2023-05-25T11:55:40.106Z,101464.56
2023-05-25T11:58:08.029Z,101513.00
2023-05-25T12:00:36.086Z,101513.09
2023-05-25T12:03:05.687Z,101477.75
2023-05-25T12:05:39.089Z,101479.56
2023-05-25T12:08:07.286Z,101507.22
2023-05-25T12:10:50.723Z,101474.50
2023-05-25T12:13:18.721Z,101502.59
2023-05-25T12:15:47.252Z,101498.44
2023-05-25T12:18:15.349Z,101496.28
2023-05-25T12:20:43.530Z,101503.13
2023-05-25T12:23:11.577Z,101501.63
2023-05-25T12:25:50.185Z,101500.13
2023-05-25T12:28:19.490Z,101497.78
2023-05-25T12:30:47.497Z,101478.38
2023-05-25T12:33:16.034Z,101500.66
2023-05-25T12:35:48.465Z,101497.72
2023-05-25T12:38:18.599Z,101495.63
2023-05-25T12:40:48.096Z,101496.25
2023-05-25T12:43:17.506Z,101496.97
2023-05-25T12:45:46.014Z,101489.59
2023-05-25T12:48:13.942Z,101494.31
2023-05-25T12:50:59.488Z,101495.94
2023-05-25T12:53:28.969Z,101495.53
2023-05-25T12:56:04.171Z,101481.72
2023-05-25T12:58:32.049Z,101458.22
2023-05-25T13:01:00.152Z,101498.38
2023-05-25T13:03:28.186Z,101501.03
2023-05-25T13:06:02.200Z,101502.31
2023-05-25T13:08:30.489Z,101491.56
2023-05-25T13:10:58.329Z,101489.72
2023-05-25T13:13:27.602Z,101487.41
2023-05-25T13:15:55.506Z,101475.50
2023-05-25T13:18:23.438Z,101496.31
2023-05-25T13:20:55.201Z,101472.94
2023-05-25T13:23:24.550Z,101402.22
2023-05-25T13:25:52.439Z,101484.53
2023-05-25T13:28:20.339Z,101482.53
2023-05-25T13:30:49.760Z,101483.47
2023-05-25T13:33:17.634Z,101468.81
2023-05-25T13:35:58.341Z,101458.47
2023-05-25T13:38:27.575Z,101475.41
2023-05-25T13:40:55.464Z,101477.28
2023-05-25T13:43:23.430Z,101473.78
2023-05-25T13:45:52.641Z,101474.38
2023-05-25T13:48:20.620Z,101472.03
2023-05-25T13:50:49.338Z,101445.66
2023-05-25T13:53:17.206Z,101469.19
2023-05-25T13:55:45.046Z,101461.03
2023-05-25T13:58:12.910Z,101461.38
2023-05-25T14:00:41.147Z,101406.94
2023-05-25T14:03:10.486Z,101441.72
2023-05-25T14:05:38.431Z,101458.28
2023-05-25T14:08:06.894Z,101461.47
2023-05-25T14:10:35.193Z,101435.19
2023-05-25T14:13:02.979Z,101455.88
2023-05-25T14:15:30.969Z,101445.72
2023-05-25T14:17:58.852Z,101439.53
2023-05-25T14:20:28.913Z,101341.19
2023-05-25T14:22:56.957Z,101447.19
2023-05-25T14:25:24.964Z,101442.25
2023-05-25T14:27:53.227Z,101441.50
2023-05-25T14:30:21.205Z,101446.44
2023-05-25T14:32:49.064Z,101403.91
2023-05-25T14:35:17.009Z,101412.25
2023-05-25T14:37:46.209Z,101440.50
2023-05-25T14:40:14.886Z,101439.25
2023-05-25T14:42:42.754Z,101413.81
2023-05-25T14:45:12.446Z,101446.88
2023-05-25T14:47:41.449Z,101447.84
2023-05-25T14:50:09.769Z,101446.44
2023-05-25T14:52:37.693Z,101449.06
2023-05-25T14:55:07.882Z,101454.53
2023-05-25T14:57:35.849Z,101426.06
2023-05-25T15:00:04.404Z,101437.75
2023-05-25T15:02:32.416Z,101430.00
2023-05-25T15:05:00.386Z,101449.34
2023-05-25T15:07:28.270Z,101441.56
2023-05-25T15:09:56.359Z,101430.56
2023-05-25T15:12:25.605Z,101438.25
2023-05-25T15:14:53.473Z,101436.31
2023-05-25T15:17:21.411Z,101445.94
2023-05-25T15:19:49.196Z,101438.66
2023-05-25T15:22:17.096Z,101434.56
2023-05-25T15:24:46.065Z,101432.69
2023-05-25T15:27:13.925Z,101361.00
2023-05-25T15:29:43.164Z,101417.13
2023-05-25T15:32:13.250Z,101425.13
2023-05-25T15:34:41.610Z,101425.78
2023-05-25T15:37:11.224Z,101416.72
2023-05-25T15:39:40.227Z,101406.78
2023-05-25T15:42:08.396Z,101377.59
2023-05-25T15:44:36.299Z,101233.75
2023-05-25T15:47:06.850Z,101379.88
2023-05-25T15:49:36.800Z,101417.66
2023-05-25T15:52:05.346Z,101422.38
2023-05-25T15:54:33.210Z,101416.97
2023-05-25T15:57:01.240Z,101401.69
2023-05-25T15:59:29.179Z,101408.31
2023-05-25T16:01:57.038Z,101415.31
2023-05-25T16:04:26.276Z,101373.72
2023-05-25T16:06:54.129Z,101404.03
2023-05-25T16:09:21.946Z,101410.84
2023-05-25T16:11:49.850Z,101413.66
2023-05-25T16:14:17.668Z,101411.75
2023-05-25T16:16:45.655Z,101399.84
2023-05-25T16:19:14.188Z,101373.66
2023-05-25T16:21:43.778Z,101376.25
2023-05-25T16:24:11.751Z,101391.84
2023-05-25T16:26:39.627Z,101388.81
2023-05-25T16:29:07.510Z,101343.72
2023-05-25T16:31:35.575Z,101365.75
2023-05-25T16:34:03.854Z,101388.72
2023-05-25T16:36:31.919Z,101393.19
2023-05-25T16:39:01.189Z,101385.03
2023-05-25T16:41:29.334Z,101377.00
2023-05-25T16:43:57.231Z,101384.34
2023-05-25T16:46:25.774Z,101387.94
2023-05-25T16:48:53.639Z,101388.44
2023-05-25T16:51:21.513Z,101302.88
2023-05-25T16:53:50.213Z,101377.44
2023-05-25T16:56:21.418Z,101377.44
2023-05-25T16:58:49.337Z,101371.47
2023-05-25T17:01:17.207Z,101374.56
2023-05-25T17:03:45.220Z,101386.91
2023-05-25T17:06:13.237Z,101365.47
2023-05-25T17:08:41.081Z,101377.88
2023-05-25T17:11:09.020Z,101386.06
2023-05-25T17:13:38.269Z,101361.25
2023-05-25T17:16:06.618Z,101383.41
2023-05-25T17:18:34.690Z,101386.00
2023-05-25T17:21:02.772Z,101391.09
2023-05-25T17:23:30.810Z,101337.91
2023-05-25T17:25:58.745Z,101360.38
2023-05-25T17:28:27.694Z,101386.47
2023-05-25T17:30:58.943Z,101378.41
2023-05-25T17:33:27.045Z,101386.25
2023-05-25T17:35:54.943Z,101387.19
2023-05-25T17:38:22.880Z,101384.47
2023-05-25T17:40:50.738Z,101390.16
2023-05-25T17:43:18.588Z,101380.72
2023-05-25T17:45:47.094Z,101367.41
2023-05-25T17:48:16.856Z,101364.88
2023-05-25T17:50:44.817Z,101314.28
2023-05-25T17:53:12.792Z,101392.75
2023-05-25T17:55:40.693Z,101393.41
2023-05-25T17:58:08.604Z,101390.16
2023-05-25T18:00:36.460Z,101386.66
2023-05-25T18:03:04.466Z,101392.00
2023-05-25T18:05:33.973Z,101399.69
2023-05-25T18:08:02.020Z,101387.44
2023-05-25T18:10:29.949Z,101383.84
2023-05-25T18:12:57.944Z,101394.09
2023-05-25T18:15:25.861Z,101397.50
2023-05-25T18:17:53.817Z,101399.13
2023-05-25T18:20:21.841Z,101399.78
2023-05-25T18:22:51.213Z,101402.56
2023-05-25T18:25:19.181Z,101385.22
2023-05-25T18:27:47.851Z,101399.09
2023-05-25T18:30:16.367Z,101407.72
2023-05-25T18:32:44.240Z,101408.84
2023-05-25T18:35:12.168Z,101390.63
2023-05-25T18:37:40.153Z,101402.41
2023-05-25T18:40:11.655Z,101404.50
2023-05-25T18:42:39.580Z,101402.06
2023-05-25T18:45:08.201Z,101384.03
2023-05-25T18:47:36.578Z,101413.28
2023-05-25T18:50:04.685Z,101409.91
2023-05-25T18:52:32.760Z,101409.97
2023-05-25T18:55:01.503Z,101410.25
2023-05-25T18:57:30.782Z,101405.88
2023-05-25T18:59:58.713Z,101410.66
2023-05-25T19:02:26.850Z,101413.53
2023-05-25T19:04:55.046Z,101416.06
2023-05-25T19:07:22.984Z,101413.28
2023-05-25T19:09:50.861Z,101421.72
2023-05-25T19:12:18.806Z,101420.97
2023-05-25T19:14:48.128Z,101417.03
2023-05-25T19:17:16.053Z,101420.75
2023-05-25T19:19:44.052Z,101377.50
2023-05-25T19:22:11.940Z,101421.06
2023-05-25T19:24:42.704Z,101367.00
2023-05-25T19:27:12.288Z,101417.25
2023-05-25T19:29:40.374Z,101423.63
2023-05-25T19:32:09.647Z,101432.25
2023-05-25T19:34:37.590Z,101316.31
2023-05-25T19:37:11.630Z,101402.97
2023-05-25T19:39:39.906Z,101438.50
2023-05-25T19:42:07.965Z,101439.97
2023-05-25T19:44:35.828Z,101441.41
2023-05-25T19:47:03.802Z,101449.19
2023-05-25T19:49:33.093Z,101454.94
2023-05-25T19:52:01.052Z,101419.78
2023-05-25T19:54:28.968Z,101449.97
2023-05-25T19:56:57.243Z,101454.72
2023-05-25T19:59:27.838Z,101453.09
2023-05-25T20:01:56.199Z,101449.75
2023-05-25T20:04:24.244Z,101421.22
2023-05-25T20:06:53.987Z,101447.59
2023-05-25T20:09:29.893Z,101453.50
2023-05-25T20:11:58.519Z,101452.72
2023-05-25T20:14:26.738Z,101453.03
2023-05-25T20:16:55.695Z,101451.44
2023-05-25T20:19:23.878Z,101436.78
2023-05-25T20:21:53.370Z,101459.03
2023-05-25T20:24:21.979Z,101463.72
2023-05-25T20:26:50.194Z,101466.63
2023-05-25T20:29:18.071Z,101466.06
2023-05-25T20:31:46.006Z,101472.44
2023-05-25T20:34:14.074Z,101470.94
2023-05-25T20:36:41.926Z,101475.88
2023-05-25T20:39:11.410Z,101468.16
2023-05-25T20:41:39.345Z,101484.22
2023-05-25T20:44:07.429Z,101479.13
2023-05-25T20:46:35.576Z,101477.72
2023-05-25T20:49:04.249Z,101488.22
2023-05-25T20:51:32.706Z,101492.63
2023-05-25T20:54:00.810Z,101461.38
2023-05-25T20:56:30.050Z,101496.41
2023-05-25T20:58:58.090Z,101364.53
2023-05-25T21:01:26.022Z,101474.63
2023-05-25T21:03:53.973Z,101464.00
2023-05-25T21:06:22.559Z,101491.97
2023-05-25T21:08:50.555Z,101494.69
2023-05-25T21:11:18.537Z,101486.16
2023-05-25T21:13:47.817Z,101498.88
2023-05-25T21:16:15.870Z,101499.06
2023-05-25T21:18:43.882Z,101497.47
2023-05-25T21:21:11.992Z,101503.75
2023-05-25T21:23:39.892Z,101507.22
2023-05-25T21:26:07.877Z,101490.50
2023-05-25T21:28:35.749Z,101503.88
2023-05-25T21:31:05.087Z,101496.31
2023-05-25T21:33:35.772Z,101493.53
2023-05-25T21:36:04.059Z,101503.91
2023-05-25T21:38:32.036Z,101506.19
2023-05-25T21:41:00.145Z,101491.16
2023-05-25T21:43:28.281Z,101507.56
2023-05-25T21:45:56.140Z,101503.66
2023-05-25T21:48:25.514Z,101511.94
2023-05-25T21:50:54.159Z,101504.53
2023-05-25T21:53:22.323Z,101507.81
2023-05-25T21:55:52.769Z,101506.81
2023-05-25T21:58:20.738Z,101409.53
2023-05-25T22:00:48.689Z,101511.09
2023-05-25T22:03:16.863Z,101503.47
2023-05-25T22:05:46.609Z,101514.22
2023-05-25T22:08:14.741Z,101502.59
2023-05-25T22:10:42.638Z,101499.13
2023-05-25T22:13:10.466Z,101520.78
2023-05-25T22:15:38.340Z,101513.28
2023-05-25T22:18:06.836Z,101521.09
2023-05-25T22:20:38.434Z,101529.91
2023-05-25T22:23:07.848Z,101491.31
2023-05-25T22:25:35.813Z,101525.63
2023-05-25T22:28:03.953Z,101529.38
2023-05-25T22:30:31.830Z,101524.34
2023-05-25T22:32:59.863Z,101494.13
2023-05-25T22:35:27.820Z,101458.94
2023-05-25T22:37:55.780Z,101530.91
2023-05-25T22:40:24.915Z,101529.38
2023-05-25T22:42:52.746Z,101531.88
2023-05-25T22:45:22.096Z,101528.47
2023-05-25T22:47:50.076Z,101514.28
2023-05-25T22:50:17.912Z,101481.41
2023-05-25T22:52:46.089Z,101513.22
2023-05-25T22:55:14.087Z,101532.91
2023-05-25T22:57:43.426Z,101516.31
2023-05-25T23:00:12.170Z,101497.03
2023-05-25T23:02:40.168Z,101533.00
2023-05-25T23:05:09.706Z,101500.78
2023-05-25T23:07:37.611Z,101533.34
2023-05-25T23:10:06.101Z,101527.13
2023-05-25T23:12:33.962Z,101539.78
2023-05-25T23:15:03.212Z,101545.25
2023-05-25T23:17:31.930Z,101536.56
2023-05-25T23:19:59.801Z,101381.34
2023-05-25T23:22:27.619Z,101544.69
2023-05-25T23:24:55.491Z,101546.41
2023-05-25T23:27:23.338Z,101549.19
2023-05-25T23:29:51.244Z,101541.16
2023-05-25T23:32:21.012Z,101544.75
2023-05-25T23:34:48.883Z,101539.38
2023-05-25T23:37:16.740Z,101542.88
2023-05-25T23:39:44.568Z,101544.78
2023-05-25T23:42:15.304Z,101541.41
2023-05-25T23:44:43.200Z,101530.81
2023-05-25T23:47:11.050Z,101537.91
2023-05-25T23:49:40.616Z,101538.88
2023-05-25T23:52:08.522Z,101536.22
2023-05-25T23:54:36.378Z,101522.53
2023-05-25T23:57:04.444Z,101538.72
2023-05-25T23:59:32.251Z,101537.75
